Isabella — 9HSL7 — position and weather

sailwx.info

Track history (hours):
 
Tides and Currents Weather Stations Pressure Air Temp Water Temp Dewpoint Dewpoint Depression Visibility Wind Speed Wind Dir Waves Ship Positions

Isabella

Last reported at 2017-Jan-23 12:33 UTC. Time now 2017-Jan-24 05:09 UTC.
Position N 60°17' E 027°55'.

Length 244 m; draft 8.4 m.

Type: Tanker. MMSI: 215545000.

Date/timePositionNaut miles runAvg speedWind from/ knotsBaromVisibWave heightAir tempDewpointWater temp
2017-Jan-23 12:33N 60°17' E 027°55'9 9.5
2017-Jan-23 11:33N 60°10' E 027°43'1312.9
2017-Jan-23 10:33N 60°03' E 027°21'1412.3
2017-Jan-23 09:25N 59°58' E 026°55'1112.7
2017-Jan-23 08:33N 59°59' E 026°33'7813.0
2017-Jan-23 02:30N 59°40' E 024°01'1513.0
2017-Jan-23 01:23N 59°35' E 023°34'34012.1
2017-Jan-21 21:21N 55°40' E 015°55'1414.1
2017-Jan-21 20:20N 55°36' E 015°31'1013.4
2017-Jan-21 19:33N 55°32' E 015°14'1413.7
2017-Jan-21 18:33N 55°27' E 014°52'1413.7
2017-Jan-21 17:33N 55°18' E 014°33'1313.3
2017-Jan-21 16:34N 55°07' E 014°19'1413.3
2017-Jan-21 15:32N 54°60' E 013°60'1414.0
2017-Jan-21 14:33N 54°55' E 013°37'1413.7
2017-Jan-21 13:33N 54°51' E 013°15'1313.5
2017-Jan-21 12:33N 54°47' E 012°52'1313.4
2017-Jan-21 11:33N 54°40' E 012°32'1312.8
2017-Jan-21 10:31N 54°31' E 012°15'1010.5
2017-Jan-21 09:33N 54°25' E 012°01'1412.9
2017-Jan-21 08:29N 54°28' E 011°38'1213.2
2017-Jan-21 07:33N 54°33' E 011°19'1312.8
2017-Jan-21 06:33N 54°39' E 010°60'1010.0
2017-Jan-21 05:33N 54°47' E 010°50'1212.2
2017-Jan-21 04:33N 54°58' E 010°59'1312.9
2017-Jan-21 03:33N 55°11' E 011°04'4012.9
2017-Jan-21 00:28N 55°50' E 010°49'1312.9
2017-Jan-20 23:25N 56°01' E 011°03'1113.1
2017-Jan-20 22:33N 56°12' E 011°05'1311.7
2017-Jan-20 21:29N 56°25' E 011°07'2412.4
2017-Jan-20 19:33N 56°40' E 011°40'2610.8
2017-Jan-20 17:07N 57°06' E 011°38'712.6
2017-Jan-20 16:33N 57°13' E 011°34'1313.1
2017-Jan-20 15:33N 57°25' E 011°25'1313.2
2017-Jan-20 14:33N 57°32' E 011°04'9 8.3
2017-Jan-20 13:28N 57°32' E 010°47'0 0.1
2017-Jan-20 12:13N 57°32' E 010°47'0 0.1
2017-Jan-20 11:25N 57°32' E 010°47'0 0.0
2017-Jan-20 10:31N 57°32' E 010°47'0 0.0
2017-Jan-20 09:31N 57°32' E 010°47'0 0.0
2017-Jan-20 08:31N 57°32' E 010°47'0 0.0
2017-Jan-20 07:31N 57°32' E 010°47'0 0.0
2017-Jan-20 06:31N 57°32' E 010°47'0 0.0
2017-Jan-20 05:31N 57°32' E 010°47'0 0.1
2017-Jan-20 04:31N 57°32' E 010°47'0 0.0
2017-Jan-20 03:25N 57°32' E 010°47'0 0.0
2017-Jan-20 02:22N 57°32' E 010°47'0 0.1
2017-Jan-20 01:28N 57°32' E 010°47'0 0.0
2017-Jan-20 00:16N 57°32' E 010°47'0 0.0
2017-Jan-19 23:31N 57°32' E 010°47'0 0.0
2017-Jan-19 22:25N 57°32' E 010°47'0 0.0
2017-Jan-19 21:31N 57°32' E 010°47'0 0.1
2017-Jan-19 20:25N 57°32' E 010°47'0 0.0
2017-Jan-19 19:31N 57°32' E 010°47'0 0.0
2017-Jan-19 17:25N 57°32' E 010°47'0 0.1
2017-Jan-19 16:31N 57°32' E 010°47'0 0.0
2017-Jan-19 15:25N 57°32' E 010°47'0 0.1
2017-Jan-19 14:31N 57°32' E 010°47'0 0.1
2017-Jan-19 13:19N 57°32' E 010°47'0 0.0
2017-Jan-19 12:31N 57°32' E 010°47'0 0.1
2017-Jan-19 11:31N 57°32' E 010°47'0 0.0
2017-Jan-19 10:25N 57°32' E 010°47'0 0.0
2017-Jan-19 09:28N 57°32' E 010°47'0 0.0
2017-Jan-19 08:31N 57°32' E 010°47'0 0.0
2017-Jan-19 07:28N 57°32' E 010°47'0 0.0
2017-Jan-19 06:28N 57°32' E 010°47'0 0.0
2017-Jan-19 05:31N 57°32' E 010°47'0 0.0
2017-Jan-19 04:16N 57°32' E 010°47'0 0.4
2017-Jan-19 03:33N 57°32' E 010°47'4 3.4
2017-Jan-19 02:30N 57°30' E 010°42'0 0.0
2017-Jan-17 21:33N 57°30' E 010°42'0 0.0
2017-Jan-17 20:33N 57°30' E 010°42'0 0.2
2017-Jan-17 19:30N 57°29' E 010°42'0 0.2
2017-Jan-17 18:33N 57°30' E 010°42'1 1.2
2017-Jan-17 17:28N 57°31' E 010°43'7 7.2
2017-Jan-17 16:33N 57°30' E 010°56'1312.7
2017-Jan-17 15:33N 57°31' E 011°19'1313.2
2017-Jan-17 14:33N 57°20' E 011°31'1413.8
2017-Jan-17 13:33N 57°07' E 011°40'11411.3
2017-Jan-17 03:28N 55°14' E 011°06'1112.3
2017-Jan-17 02:33N 55°04' E 010°60'1413.8
2017-Jan-17 01:34N 54°51' E 010°50'1212.4
2017-Jan-17 00:33N 54°39' E 010°53'1413.6
2017-Jan-16 23:33N 54°35' E 011°15'1414.3
2017-Jan-16 22:33N 54°29' E 011°37'1913.8
2017-Jan-16 21:12N 54°26' E 012°09'7112.1
2017-Jan-16 15:21N 55°02' E 013°55'911.9
2017-Jan-16 14:33N 55°08' E 014°08'1212.5
2017-Jan-16 13:33N 55°18' E 014°22'1312.8
2017-Jan-16 12:33N 55°27' E 014°37'1312.8
2017-Jan-16 11:30N 55°34' E 014°58'1312.8
2017-Jan-16 10:30N 55°39' E 015°19'33611.8
2017-Jan-15 06:08N 59°33' E 022°49'712.7
2017-Jan-15 05:33N 59°35' E 023°03'1312.8
2017-Jan-15 04:33N 59°39' E 023°27'1312.8
2017-Jan-15 03:33N 59°42' E 023°51'1312.9
2017-Jan-15 02:33N 59°46' E 024°16'5612.6
2017-Jan-14 22:08N 59°57' E 026°05'713.0
2017-Jan-14 21:33N 59°59' E 026°20'1212.4
2017-Jan-14 20:33N 60°01' E 026°44'1212.2
2017-Jan-14 19:33N 60°01' E 027°09'1412.7
2017-Jan-14 18:29N 60°08' E 027°31'1111.2
2017-Jan-14 17:31N 60°11' E 027°52'1212.7
2017-Jan-14 16:33N 60°08' E 028°16'1312.8
2017-Jan-14 15:33N 60°03' E 028°40'1211.7
2017-Jan-14 14:33N 60°02' E 029°03'1411.7
2017-Jan-14 13:24N 60°01' E 029°30'5 5.7
2017-Jan-14 12:33N 59°60' E 029°39'9 9.4
2017-Jan-14 11:33N 59°56' E 029°56'7 7.2
2017-Jan-14 10:33N 59°53' E 030°10'0 0.1
2017-Jan-14 09:33N 59°53' E 030°10'0 0.3
2017-Jan-14 08:32N 59°53' E 030°10'0 0.0
2017-Jan-14 07:32N 59°53' E 030°10'0 0.0
2017-Jan-14 06:32N 59°53' E 030°10'0 0.0
2017-Jan-14 05:32N 59°53' E 030°10'0 0.0
2017-Jan-14 04:32N 59°53' E 030°10'0 0.0
2017-Jan-14 03:32N 59°53' E 030°10'0 0.0
2017-Jan-13 23:32N 59°53' E 030°10'0 0.0
2017-Jan-13 22:32N 59°53' E 030°10'0 0.0
2017-Jan-13 21:32N 59°53' E 030°10'0 0.0
2017-Jan-13 20:32N 59°53' E 030°10'0 0.0
2017-Jan-13 19:32N 59°53' E 030°10'0 0.0
2017-Jan-13 18:32N 59°53' E 030°10'0 0.0
2017-Jan-13 17:32N 59°53' E 030°10'0 0.0
2017-Jan-13 16:32N 59°53' E 030°10'0 0.0
2017-Jan-13 15:32N 59°53' E 030°10'0 0.0
2017-Jan-13 14:32N 59°53' E 030°10'0 0.0
2017-Jan-13 13:32N 59°53' E 030°10'  
Track history (hours):
 
Tides and Currents Weather Stations Pressure Air Temp Water Temp Dewpoint Dewpoint Depression Visibility Wind Speed Wind Dir Waves Ship Positions

Isabella

Last reported at 2017-Jan-23 12:33 UTC. Time now 2017-Jan-24 05:09 UTC.
Position N 60°17' E 027°55'.

Length 244 m; draft 8.4 m.

Type: Tanker. MMSI: 215545000.

Date/timePositionNaut miles runAvg speedWind from/ knotsBaromVisibWave heightAir tempDewpointWater temp
2017-Jan-23 12:33N 60°17' E 027°55'9 9.5
2017-Jan-23 11:33N 60°10' E 027°43'1312.9
2017-Jan-23 10:33N 60°03' E 027°21'1412.3
2017-Jan-23 09:25N 59°58' E 026°55'1112.7
2017-Jan-23 08:33N 59°59' E 026°33'7813.0
2017-Jan-23 02:30N 59°40' E 024°01'1513.0
2017-Jan-23 01:23N 59°35' E 023°34'34012.1
2017-Jan-21 21:21N 55°40' E 015°55'1414.1
2017-Jan-21 20:20N 55°36' E 015°31'1013.4
2017-Jan-21 19:33N 55°32' E 015°14'1413.7
2017-Jan-21 18:33N 55°27' E 014°52'1413.7
2017-Jan-21 17:33N 55°18' E 014°33'1313.3
2017-Jan-21 16:34N 55°07' E 014°19'1413.3
2017-Jan-21 15:32N 54°60' E 013°60'1414.0
2017-Jan-21 14:33N 54°55' E 013°37'1413.7
2017-Jan-21 13:33N 54°51' E 013°15'1313.5
2017-Jan-21 12:33N 54°47' E 012°52'1313.4
2017-Jan-21 11:33N 54°40' E 012°32'1312.8
2017-Jan-21 10:31N 54°31' E 012°15'1010.5
2017-Jan-21 09:33N 54°25' E 012°01'1412.9
2017-Jan-21 08:29N 54°28' E 011°38'1213.2
2017-Jan-21 07:33N 54°33' E 011°19'1312.8
2017-Jan-21 06:33N 54°39' E 010°60'1010.0
2017-Jan-21 05:33N 54°47' E 010°50'1212.2
2017-Jan-21 04:33N 54°58' E 010°59'1312.9
2017-Jan-21 03:33N 55°11' E 011°04'4012.9
2017-Jan-21 00:28N 55°50' E 010°49'1312.9
2017-Jan-20 23:25N 56°01' E 011°03'1113.1
2017-Jan-20 22:33N 56°12' E 011°05'1311.7
2017-Jan-20 21:29N 56°25' E 011°07'2412.4
2017-Jan-20 19:33N 56°40' E 011°40'2610.8
2017-Jan-20 17:07N 57°06' E 011°38'712.6
2017-Jan-20 16:33N 57°13' E 011°34'1313.1
2017-Jan-20 15:33N 57°25' E 011°25'1313.2
2017-Jan-20 14:33N 57°32' E 011°04'9 8.3
2017-Jan-20 13:28N 57°32' E 010°47'0 0.1
2017-Jan-20 12:13N 57°32' E 010°47'0 0.1
2017-Jan-20 11:25N 57°32' E 010°47'0 0.0
2017-Jan-20 10:31N 57°32' E 010°47'0 0.0
2017-Jan-20 09:31N 57°32' E 010°47'0 0.0
2017-Jan-20 08:31N 57°32' E 010°47'0 0.0
2017-Jan-20 07:31N 57°32' E 010°47'0 0.0
2017-Jan-20 06:31N 57°32' E 010°47'0 0.0
2017-Jan-20 05:31N 57°32' E 010°47'0 0.1
2017-Jan-20 04:31N 57°32' E 010°47'0 0.0
2017-Jan-20 03:25N 57°32' E 010°47'0 0.0
2017-Jan-20 02:22N 57°32' E 010°47'0 0.1
2017-Jan-20 01:28N 57°32' E 010°47'0 0.0
2017-Jan-20 00:16N 57°32' E 010°47'0 0.0
2017-Jan-19 23:31N 57°32' E 010°47'0 0.0
2017-Jan-19 22:25N 57°32' E 010°47'0 0.0
2017-Jan-19 21:31N 57°32' E 010°47'0 0.1
2017-Jan-19 20:25N 57°32' E 010°47'0 0.0
2017-Jan-19 19:31N 57°32' E 010°47'0 0.0
2017-Jan-19 17:25N 57°32' E 010°47'0 0.1
2017-Jan-19 16:31N 57°32' E 010°47'0 0.0
2017-Jan-19 15:25N 57°32' E 010°47'0 0.1
2017-Jan-19 14:31N 57°32' E 010°47'0 0.1
2017-Jan-19 13:19N 57°32' E 010°47'0 0.0
2017-Jan-19 12:31N 57°32' E 010°47'0 0.1
2017-Jan-19 11:31N 57°32' E 010°47'0 0.0
2017-Jan-19 10:25N 57°32' E 010°47'0 0.0
2017-Jan-19 09:28N 57°32' E 010°47'0 0.0
2017-Jan-19 08:31N 57°32' E 010°47'0 0.0
2017-Jan-19 07:28N 57°32' E 010°47'0 0.0
2017-Jan-19 06:28N 57°32' E 010°47'0 0.0
2017-Jan-19 05:31N 57°32' E 010°47'0 0.0
2017-Jan-19 04:16N 57°32' E 010°47'0 0.4
2017-Jan-19 03:33N 57°32' E 010°47'4 3.4
2017-Jan-19 02:30N 57°30' E 010°42'0 0.0
2017-Jan-17 21:33N 57°30' E 010°42'0 0.0
2017-Jan-17 20:33N 57°30' E 010°42'0 0.2
2017-Jan-17 19:30N 57°29' E 010°42'0 0.2
2017-Jan-17 18:33N 57°30' E 010°42'1 1.2
2017-Jan-17 17:28N 57°31' E 010°43'7 7.2
2017-Jan-17 16:33N 57°30' E 010°56'1312.7
2017-Jan-17 15:33N 57°31' E 011°19'1313.2
2017-Jan-17 14:33N 57°20' E 011°31'1413.8
2017-Jan-17 13:33N 57°07' E 011°40'11411.3
2017-Jan-17 03:28N 55°14' E 011°06'1112.3
2017-Jan-17 02:33N 55°04' E 010°60'1413.8
2017-Jan-17 01:34N 54°51' E 010°50'1212.4
2017-Jan-17 00:33N 54°39' E 010°53'1413.6
2017-Jan-16 23:33N 54°35' E 011°15'1414.3
2017-Jan-16 22:33N 54°29' E 011°37'1913.8
2017-Jan-16 21:12N 54°26' E 012°09'7112.1
2017-Jan-16 15:21N 55°02' E 013°55'911.9
2017-Jan-16 14:33N 55°08' E 014°08'1212.5
2017-Jan-16 13:33N 55°18' E 014°22'1312.8
2017-Jan-16 12:33N 55°27' E 014°37'1312.8
2017-Jan-16 11:30N 55°34' E 014°58'1312.8
2017-Jan-16 10:30N 55°39' E 015°19'33611.8
2017-Jan-15 06:08N 59°33' E 022°49'712.7
2017-Jan-15 05:33N 59°35' E 023°03'1312.8
2017-Jan-15 04:33N 59°39' E 023°27'1312.8
2017-Jan-15 03:33N 59°42' E 023°51'1312.9
2017-Jan-15 02:33N 59°46' E 024°16'5612.6
2017-Jan-14 22:08N 59°57' E 026°05'713.0
2017-Jan-14 21:33N 59°59' E 026°20'1212.4
2017-Jan-14 20:33N 60°01' E 026°44'1212.2
2017-Jan-14 19:33N 60°01' E 027°09'1412.7
2017-Jan-14 18:29N 60°08' E 027°31'1111.2
2017-Jan-14 17:31N 60°11' E 027°52'1212.7
2017-Jan-14 16:33N 60°08' E 028°16'1312.8
2017-Jan-14 15:33N 60°03' E 028°40'1211.7
2017-Jan-14 14:33N 60°02' E 029°03'1411.7
2017-Jan-14 13:24N 60°01' E 029°30'5 5.7
2017-Jan-14 12:33N 59°60' E 029°39'9 9.4
2017-Jan-14 11:33N 59°56' E 029°56'7 7.2
2017-Jan-14 10:33N 59°53' E 030°10'0 0.1
2017-Jan-14 09:33N 59°53' E 030°10'0 0.3
2017-Jan-14 08:32N 59°53' E 030°10'0 0.0
2017-Jan-14 07:32N 59°53' E 030°10'0 0.0
2017-Jan-14 06:32N 59°53' E 030°10'0 0.0
2017-Jan-14 05:32N 59°53' E 030°10'0 0.0
2017-Jan-14 04:32N 59°53' E 030°10'0 0.0
2017-Jan-14 03:32N 59°53' E 030°10'0 0.0
2017-Jan-13 23:32N 59°53' E 030°10'0 0.0
2017-Jan-13 22:32N 59°53' E 030°10'0 0.0
2017-Jan-13 21:32N 59°53' E 030°10'0 0.0
2017-Jan-13 20:32N 59°53' E 030°10'0 0.0
2017-Jan-13 19:32N 59°53' E 030°10'0 0.0
2017-Jan-13 18:32N 59°53' E 030°10'0 0.0
2017-Jan-13 17:32N 59°53' E 030°10'0 0.0
2017-Jan-13 16:32N 59°53' E 030°10'0 0.0
2017-Jan-13 15:32N 59°53' E 030°10'0 0.0
2017-Jan-13 14:32N 59°53' E 030°10'0 0.0
2017-Jan-13 13:32N 59°53' E 030°10'  

Dump ship's entire track history